Rockland, Michigan
Current Conditions -  °F | °C
As of 5:55 AM on Friday 31 Oct 2014 (Local Time) from KLNL Reporting Station
Light Snow Light Snow  
Wind Chill: 17°   Ceiling: 2500
Heat Index: 28°   Visibility: 5mi
Dew Point: 24°   Wind: 13mph
Humidity: 87%   Direction: 360°N
Pressure: 30.26"   Gusts: 25mph
Location:  46.74°N, 89.18°W
Report Text: KLNL 310955Z AUTO 36011G22KT 5SM -SN SCT015 BKN025 OVC050 M02/M04 A3026 RMK AO2 T10231042
Loading
Personal Weather Stations






























Interactive Weather Map
Tropical Storm Tracking
New forecast layout! Learn more

10-Day Weather Forecast

Advertisements
Track Severe Weather on mobile